createdAt,value
2023-01-17T00:01:15.982Z,3.30
2023-01-17T00:02:49.149Z,3.27
2023-01-17T00:04:36.215Z,3.29
2023-01-17T00:06:28.427Z,3.21
2023-01-17T00:08:19.060Z,3.15
2023-01-17T00:09:56.759Z,3.12
2023-01-17T00:11:29.933Z,3.11
2023-01-17T00:13:04.566Z,3.09
2023-01-17T00:14:37.653Z,3.05
2023-01-17T00:16:12.423Z,2.94
2023-01-17T00:17:45.652Z,2.95
2023-01-17T00:19:36.099Z,2.93
2023-01-17T00:21:35.070Z,2.87
2023-01-17T00:23:26.827Z,2.73
2023-01-17T00:25:17.488Z,2.66
2023-01-17T00:27:04.607Z,2.60
2023-01-17T00:28:38.772Z,2.57
2023-01-17T00:30:11.964Z,2.57
2023-01-17T00:31:45.264Z,2.59
2023-01-17T00:33:17.350Z,2.62
2023-01-17T00:34:49.643Z,2.67
2023-01-17T00:36:21.640Z,2.70
2023-01-17T00:38:04.789Z,2.74
2023-01-17T00:39:36.718Z,2.79
2023-01-17T00:41:12.128Z,2.82
2023-01-17T00:42:44.122Z,2.88
2023-01-17T00:44:34.481Z,2.93
2023-01-17T00:46:25.525Z,3.01
2023-01-17T00:48:17.581Z,3.09
2023-01-17T00:50:08.187Z,3.13
2023-01-17T00:51:59.012Z,3.04
2023-01-17T00:53:49.675Z,3.02
2023-01-17T00:55:40.331Z,3.04
2023-01-17T00:57:31.086Z,3.06
2023-01-17T00:59:21.577Z,3.16
2023-01-17T01:01:12.674Z,3.16
2023-01-17T01:03:03.839Z,3.22
2023-01-17T01:04:56.056Z,3.26
2023-01-17T01:06:46.328Z,3.24
2023-01-17T01:08:39.592Z,3.11
2023-01-17T01:10:30.321Z,3.17
2023-01-17T01:12:20.903Z,3.20
2023-01-17T01:14:12.229Z,3.22
2023-01-17T01:16:02.938Z,3.20
2023-01-17T01:17:53.491Z,3.13
2023-01-17T01:19:44.824Z,3.06
2023-01-17T01:21:37.164Z,3.08
2023-01-17T01:23:27.706Z,3.10
2023-01-17T01:25:18.573Z,3.10
2023-01-17T01:27:09.131Z,3.10
2023-01-17T01:28:59.920Z,3.09
2023-01-17T01:30:51.045Z,3.02
2023-01-17T01:32:41.799Z,3.03
2023-01-17T01:34:14.930Z,3.00
2023-01-17T01:35:50.513Z,2.99
2023-01-17T01:37:25.549Z,2.96
2023-01-17T01:38:58.735Z,2.96
2023-01-17T01:40:31.849Z,2.95
2023-01-17T01:42:05.128Z,2.94
2023-01-17T01:43:45.488Z,2.91
2023-01-17T01:45:21.024Z,2.85
2023-01-17T01:46:54.209Z,2.87
2023-01-17T01:48:36.495Z,2.81
2023-01-17T01:50:13.681Z,2.78
2023-01-17T01:51:51.778Z,2.80
2023-01-17T01:53:26.205Z,2.80
2023-01-17T01:55:01.903Z,2.80
2023-01-17T01:56:35.924Z,2.84
2023-01-17T01:58:11.534Z,2.81
2023-01-17T01:59:50.241Z,2.83
2023-01-17T02:01:23.466Z,2.87
2023-01-17T02:02:59.895Z,2.83
2023-01-17T02:04:33.229Z,2.76
2023-01-17T02:06:16.780Z,2.71
2023-01-17T02:07:53.399Z,2.69
2023-01-17T02:09:28.878Z,2.73
2023-01-17T02:11:02.094Z,2.77
2023-01-17T02:12:36.025Z,2.76
2023-01-17T02:14:09.560Z,2.77
2023-01-17T02:15:53.457Z,2.79
2023-01-17T02:17:39.662Z,2.81
2023-01-17T02:19:35.357Z,2.83
2023-01-17T02:21:24.463Z,2.85
2023-01-17T02:23:24.100Z,2.83
2023-01-17T02:25:21.686Z,2.86
2023-01-17T02:27:01.060Z,2.90
2023-01-17T02:28:51.344Z,2.91
2023-01-17T02:30:38.358Z,2.88
2023-01-17T02:32:16.713Z,2.86
2023-01-17T02:33:59.443Z,2.78
2023-01-17T02:35:38.465Z,2.79
2023-01-17T02:37:18.216Z,2.71
2023-01-17T02:38:56.822Z,2.70
2023-01-17T02:40:35.595Z,2.77
2023-01-17T02:42:14.716Z,2.83
2023-01-17T02:43:50.859Z,2.90
2023-01-17T02:45:23.002Z,2.95
2023-01-17T02:46:59.404Z,2.92
2023-01-17T02:48:35.320Z,2.90
2023-01-17T02:50:12.775Z,2.88
2023-01-17T02:52:10.934Z,2.90
2023-01-17T02:53:57.704Z,2.89
2023-01-17T02:55:43.864Z,2.88
2023-01-17T02:57:32.980Z,2.86
2023-01-17T02:59:15.058Z,2.91
2023-01-17T03:01:00.901Z,2.93
2023-01-17T03:02:41.807Z,2.89
2023-01-17T03:04:21.743Z,2.84
2023-01-17T03:06:00.965Z,2.88
2023-01-17T03:07:34.235Z,2.87
2023-01-17T03:09:08.975Z,2.87
2023-01-17T03:10:43.090Z,2.95
2023-01-17T03:12:16.936Z,2.99
2023-01-17T03:13:50.611Z,3.01
2023-01-17T03:15:23.902Z,3.01
2023-01-17T03:16:57.130Z,3.08
2023-01-17T03:18:31.859Z,3.14
2023-01-17T03:20:06.445Z,3.19
2023-01-17T03:21:39.650Z,3.21
2023-01-17T03:23:12.860Z,3.23
2023-01-17T03:24:46.445Z,3.19
2023-01-17T03:26:20.080Z,3.21
2023-01-17T03:27:52.559Z,3.22
2023-01-17T03:29:25.773Z,3.24
2023-01-17T03:30:59.735Z,3.29
2023-01-17T03:32:32.543Z,3.33
2023-01-17T03:34:07.750Z,3.31
2023-01-17T03:35:40.845Z,3.26
2023-01-17T03:37:14.131Z,3.22
2023-01-17T03:38:47.384Z,3.20
2023-01-17T03:40:20.808Z,3.15
2023-01-17T03:41:53.972Z,3.08
2023-01-17T03:43:27.717Z,3.05
2023-01-17T03:45:00.987Z,3.05
2023-01-17T03:46:34.337Z,3.02
2023-01-17T03:48:07.068Z,3.01
2023-01-17T03:49:42.509Z,3.05
2023-01-17T03:51:16.072Z,3.04
2023-01-17T03:52:49.186Z,3.05
2023-01-17T03:54:22.409Z,3.05
2023-01-17T03:55:55.568Z,3.06
2023-01-17T03:57:29.399Z,3.05
2023-01-17T03:59:02.564Z,3.08
2023-01-17T04:00:36.972Z,3.11
2023-01-17T04:02:10.511Z,3.15
2023-01-17T04:03:44.029Z,3.20
2023-01-17T04:05:18.533Z,3.21
2023-01-17T04:06:50.644Z,3.21
2023-01-17T04:08:24.293Z,3.19
2023-01-17T04:09:58.252Z,3.15
2023-01-17T04:11:31.642Z,3.13
2023-01-17T04:13:04.848Z,3.12
2023-01-17T04:14:38.364Z,3.13
2023-01-17T04:16:14.726Z,3.14
2023-01-17T04:17:47.909Z,3.12
2023-01-17T04:19:21.816Z,3.18
2023-01-17T04:20:56.641Z,3.20
2023-01-17T04:22:31.694Z,3.21
2023-01-17T04:24:05.223Z,3.27
2023-01-17T04:25:38.419Z,3.31
2023-01-17T04:27:14.351Z,3.33
2023-01-17T04:28:46.874Z,3.35
2023-01-17T04:30:20.047Z,3.32
2023-01-17T04:31:53.808Z,3.31
2023-01-17T04:33:27.308Z,3.28
2023-01-17T04:35:00.774Z,3.24
2023-01-17T04:36:35.649Z,3.18
2023-01-17T04:38:08.735Z,3.15
2023-01-17T04:39:42.005Z,3.18
2023-01-17T04:41:14.536Z,3.18
2023-01-17T04:42:48.132Z,3.21
2023-01-17T04:44:21.518Z,3.20
2023-01-17T04:45:56.782Z,3.18
2023-01-17T04:47:30.227Z,3.05
2023-01-17T04:49:03.509Z,3.10
2023-01-17T04:50:36.753Z,3.08
2023-01-17T04:52:11.397Z,3.00
2023-01-17T04:53:44.889Z,3.02
2023-01-17T04:55:18.123Z,3.01
2023-01-17T04:56:51.241Z,3.09
2023-01-17T04:58:24.715Z,3.14
2023-01-17T04:59:57.905Z,3.14
2023-01-17T05:01:31.204Z,3.25
2023-01-17T05:03:04.558Z,3.66
2023-01-17T05:04:37.868Z,4.34
2023-01-17T05:06:11.301Z,4.99
2023-01-17T05:07:45.956Z,5.61
2023-01-17T05:09:19.049Z,6.84
2023-01-17T05:10:52.354Z,7.83
2023-01-17T05:12:25.553Z,8.56
2023-01-17T05:13:58.715Z,9.24
2023-01-17T05:15:31.982Z,9.55
2023-01-17T05:17:05.306Z,9.94
2023-01-17T05:18:38.605Z,10.13
2023-01-17T05:20:12.939Z,10.23
2023-01-17T05:21:46.040Z,10.39
2023-01-17T05:23:20.856Z,10.35
2023-01-17T05:24:54.181Z,10.53
2023-01-17T05:26:27.390Z,10.63
2023-01-17T05:28:01.097Z,10.60
2023-01-17T05:29:34.476Z,10.67
2023-01-17T05:31:07.804Z,10.74
2023-01-17T05:32:40.004Z,10.79
2023-01-17T05:34:13.360Z,10.79
2023-01-17T05:35:46.803Z,10.79
2023-01-17T05:37:19.957Z,10.80
2023-01-17T05:38:54.456Z,10.77
2023-01-17T05:40:30.871Z,10.79
2023-01-17T05:42:04.279Z,10.91
2023-01-17T05:43:37.483Z,10.96
2023-01-17T05:45:12.595Z,10.92
2023-01-17T05:46:45.736Z,11.04
2023-01-17T05:48:19.004Z,11.02
2023-01-17T05:49:52.071Z,10.97
2023-01-17T05:51:25.405Z,10.92
2023-01-17T05:53:00.600Z,10.92
2023-01-17T05:54:35.328Z,11.01
2023-01-17T05:56:08.833Z,11.11
2023-01-17T05:57:40.905Z,11.14
2023-01-17T05:59:14.457Z,11.16
2023-01-17T06:00:48.453Z,11.11
2023-01-17T06:02:21.925Z,11.19
2023-01-17T06:03:55.193Z,11.25
2023-01-17T06:05:29.226Z,11.26
2023-01-17T06:07:02.465Z,11.22
2023-01-17T06:08:35.648Z,11.19
2023-01-17T06:10:11.489Z,11.16
2023-01-17T06:11:44.604Z,11.15
2023-01-17T06:13:21.923Z,11.18
2023-01-17T06:14:55.320Z,11.21
2023-01-17T06:16:28.469Z,11.29
2023-01-17T06:18:06.209Z,11.33
2023-01-17T06:19:39.683Z,11.36
2023-01-17T06:21:12.846Z,11.33
2023-01-17T06:22:46.051Z,11.37
2023-01-17T06:24:19.247Z,11.32
2023-01-17T06:25:53.921Z,11.33
2023-01-17T06:27:27.550Z,11.35
2023-01-17T06:29:00.654Z,11.34
2023-01-17T06:30:33.798Z,11.34
2023-01-17T06:32:07.170Z,11.38
2023-01-17T06:33:40.565Z,11.42
2023-01-17T06:35:13.681Z,11.42
2023-01-17T06:36:46.896Z,11.44
2023-01-17T06:38:20.716Z,11.45
2023-01-17T06:39:54.015Z,11.44
2023-01-17T06:41:28.534Z,11.43
2023-01-17T06:43:02.612Z,11.47
2023-01-17T06:44:36.036Z,11.50
2023-01-17T06:46:09.390Z,11.49
2023-01-17T06:47:43.162Z,11.48
2023-01-17T06:49:16.619Z,11.42
2023-01-17T06:50:49.965Z,11.46
2023-01-17T06:52:23.148Z,11.47
2023-01-17T06:53:56.303Z,11.46
2023-01-17T06:55:30.795Z,11.42
2023-01-17T06:57:05.897Z,11.42
2023-01-17T06:58:38.993Z,11.39
2023-01-17T07:00:13.511Z,11.48
2023-01-17T07:01:46.782Z,11.62
2023-01-17T07:03:21.977Z,11.66
2023-01-17T10:47:39.801Z,16.59
2023-01-17T10:49:17.447Z,16.63
2023-01-17T10:50:58.465Z,16.68
2023-01-17T10:52:43.562Z,16.76
2023-01-17T10:54:33.469Z,16.77
2023-01-17T10:56:08.282Z,16.81
2023-01-17T10:57:43.464Z,16.83
2023-01-17T10:59:29.627Z,16.87
2023-01-17T11:01:06.847Z,16.90
2023-01-17T11:02:47.698Z,16.89
2023-01-17T11:04:23.111Z,16.92
2023-01-17T11:06:21.797Z,16.96
2023-01-17T11:07:59.274Z,16.97
2023-01-17T11:09:39.956Z,16.93
2023-01-17T11:11:13.240Z,16.92
2023-01-17T11:12:48.262Z,16.92
2023-01-17T11:14:25.527Z,16.95
2023-01-17T11:16:02.216Z,16.97
2023-01-17T11:17:37.995Z,17.00
2023-01-17T11:19:18.593Z,16.98
2023-01-17T11:20:51.964Z,16.99
2023-01-17T11:22:26.590Z,17.05
2023-01-17T11:24:11.283Z,17.09
2023-01-17T11:25:53.360Z,17.16
2023-01-17T11:27:29.223Z,17.14
2023-01-17T11:29:15.719Z,17.12
2023-01-17T11:30:54.799Z,17.06
2023-01-17T11:32:32.625Z,17.05
2023-01-17T11:34:17.800Z,17.05
2023-01-17T11:35:51.003Z,16.99
2023-01-17T11:37:26.529Z,16.94
2023-01-17T11:39:03.355Z,16.87
2023-01-17T11:40:41.791Z,16.84
2023-01-17T11:42:33.972Z,16.88
2023-01-17T11:44:23.416Z,16.91
2023-01-17T11:46:06.403Z,16.94
2023-01-17T11:47:39.636Z,16.99
2023-01-17T11:49:26.121Z,17.01
2023-01-17T11:51:01.087Z,17.02
2023-01-17T11:52:37.590Z,17.05
2023-01-17T11:54:19.564Z,17.07
2023-01-17T11:55:58.379Z,17.09
2023-01-17T11:57:34.246Z,17.09
2023-01-17T11:59:25.812Z,17.16
2023-01-17T12:01:06.191Z,17.14
2023-01-17T12:03:06.290Z,17.22
2023-01-17T12:04:44.496Z,17.23
2023-01-17T12:06:26.203Z,17.25
2023-01-17T12:08:10.312Z,17.30
2023-01-17T12:09:50.729Z,17.35
2023-01-17T12:11:36.021Z,17.38
2023-01-17T12:13:33.806Z,17.39
2023-01-17T12:15:23.352Z,17.43
2023-01-17T12:17:07.177Z,17.44
2023-01-17T12:18:49.848Z,17.41
2023-01-17T12:20:33.594Z,17.36
2023-01-17T12:22:25.145Z,17.30
2023-01-17T12:24:15.670Z,17.33
2023-01-17T12:26:02.021Z,17.33
2023-01-17T12:27:45.201Z,17.34
2023-01-17T12:29:44.232Z,17.36
2023-01-17T12:31:27.672Z,17.38
2023-01-17T12:33:15.808Z,17.42
2023-01-17T12:34:52.017Z,17.41
2023-01-17T12:36:39.040Z,17.35
2023-01-17T12:38:31.326Z,17.31
2023-01-17T12:40:18.236Z,17.31
2023-01-17T12:42:01.976Z,17.33
2023-01-17T12:43:38.065Z,17.34
2023-01-17T12:45:15.145Z,17.31
2023-01-17T12:46:55.343Z,17.30
2023-01-17T12:48:35.897Z,17.34
2023-01-17T12:50:22.444Z,17.34
2023-01-17T12:52:05.031Z,17.29
2023-01-17T12:53:43.879Z,17.27
2023-01-17T12:55:23.508Z,17.20
2023-01-17T12:57:02.223Z,17.11
2023-01-17T12:58:41.655Z,16.98
2023-01-17T13:00:23.078Z,17.01
2023-01-17T13:01:58.584Z,17.03
2023-01-17T13:03:42.987Z,17.06
2023-01-17T13:05:23.826Z,17.05
2023-01-17T13:07:07.716Z,17.03
2023-01-17T13:08:43.902Z,17.02
2023-01-17T13:10:32.052Z,17.01
2023-01-17T13:12:08.979Z,16.99
2023-01-17T13:13:43.414Z,16.95
2023-01-17T13:15:19.677Z,16.92
2023-01-17T13:16:57.951Z,16.93
2023-01-17T13:18:33.407Z,16.92
2023-01-17T13:20:17.496Z,16.92
2023-01-17T13:21:51.724Z,16.95
2023-01-17T13:23:31.938Z,16.94
2023-01-17T13:25:17.280Z,16.94
2023-01-17T13:27:08.005Z,16.87
2023-01-17T13:28:51.528Z,16.83
2023-01-17T13:30:37.607Z,16.80
2023-01-17T13:32:27.576Z,16.78
2023-01-17T13:34:24.881Z,16.75
2023-01-17T13:36:10.677Z,16.69
2023-01-17T13:38:08.422Z,16.68
2023-01-17T13:40:06.828Z,16.69
2023-01-17T13:41:50.435Z,16.69
2023-01-17T13:43:27.020Z,16.68
2023-01-17T13:45:00.179Z,16.69
2023-01-17T13:46:53.284Z,16.71
2023-01-17T13:48:37.421Z,16.68
2023-01-17T13:50:49.333Z,16.68
2023-01-17T13:52:35.951Z,16.66
2023-01-17T13:54:29.288Z,16.64
2023-01-17T13:56:13.421Z,16.63
2023-01-17T13:57:47.484Z,16.59
2023-01-17T13:59:30.703Z,16.54
2023-01-17T14:01:03.974Z,16.49
2023-01-17T14:02:39.057Z,16.45
2023-01-17T14:04:13.090Z,16.44
2023-01-17T14:05:56.733Z,16.42
2023-01-17T14:07:30.741Z,16.41
2023-01-17T14:09:12.148Z,16.35
2023-01-17T14:10:48.677Z,16.32
2023-01-17T14:12:31.888Z,16.28
2023-01-17T14:14:36.939Z,16.26
2023-01-17T14:16:28.327Z,16.24
2023-01-17T14:18:03.210Z,16.19
2023-01-17T14:19:37.885Z,16.12
2023-01-17T14:21:22.555Z,16.11
2023-01-17T14:22:58.855Z,16.05
2023-01-17T14:24:32.258Z,16.04
2023-01-17T14:26:27.955Z,16.01
2023-01-17T14:28:05.598Z,15.97
2023-01-17T14:29:49.583Z,15.93
2023-01-17T14:31:24.404Z,15.87
2023-01-17T14:33:15.991Z,15.83
2023-01-17T14:34:51.941Z,15.79
2023-01-17T14:36:29.716Z,15.77
2023-01-17T14:38:05.395Z,15.76
2023-01-17T14:39:46.233Z,15.75
2023-01-17T14:41:22.880Z,15.76
2023-01-17T14:43:03.161Z,15.73
2023-01-17T14:44:36.435Z,15.70
2023-01-17T14:46:18.611Z,15.71
2023-01-17T14:47:52.755Z,15.73
2023-01-17T14:49:27.161Z,15.72
2023-01-17T14:51:00.486Z,15.71
2023-01-17T14:52:33.613Z,15.70
2023-01-17T14:54:19.747Z,15.65
2023-01-17T14:55:57.519Z,15.57
2023-01-17T14:57:31.016Z,15.43
2023-01-17T14:59:17.106Z,15.36
2023-01-17T15:00:53.486Z,15.32
2023-01-17T15:02:27.095Z,15.29
2023-01-17T15:04:00.514Z,15.26
2023-01-17T15:05:34.540Z,15.24
2023-01-17T15:07:08.772Z,15.25
2023-01-17T15:08:42.260Z,15.22
2023-01-17T15:10:18.746Z,15.23
2023-01-17T15:11:53.355Z,15.18
2023-01-17T15:13:43.749Z,15.13
2023-01-17T15:15:35.722Z,15.09
2023-01-17T15:17:19.640Z,15.07
2023-01-17T15:18:53.993Z,15.07
2023-01-17T15:20:28.770Z,15.08
2023-01-17T15:22:02.402Z,15.13
2023-01-17T15:23:40.192Z,15.18
2023-01-17T15:25:15.445Z,15.21
2023-01-17T15:26:50.268Z,15.20
2023-01-17T15:28:23.882Z,15.18
2023-01-17T15:30:02.267Z,15.18
2023-01-17T15:31:45.542Z,15.16
2023-01-17T15:33:21.114Z,15.13
2023-01-17T15:34:55.315Z,15.08
2023-01-17T15:36:33.432Z,15.05
2023-01-17T15:38:06.806Z,15.03
2023-01-17T15:39:42.208Z,14.97
2023-01-17T15:41:18.338Z,14.94
2023-01-17T15:42:54.456Z,14.90
2023-01-17T15:44:49.707Z,14.86
2023-01-17T15:46:27.098Z,14.81
2023-01-17T15:48:38.026Z,14.77
2023-01-17T15:50:36.653Z,14.75
2023-01-17T15:52:17.764Z,14.73
2023-01-17T15:53:51.005Z,14.70
2023-01-17T15:55:27.586Z,14.69
2023-01-17T15:57:18.860Z,14.67
2023-01-17T15:58:52.150Z,14.65
2023-01-17T16:00:32.617Z,14.63
2023-01-17T16:02:27.746Z,14.56
2023-01-17T16:04:02.936Z,14.41
2023-01-17T16:05:43.947Z,14.29
2023-01-17T16:07:20.920Z,14.21
2023-01-17T16:08:55.023Z,14.16
2023-01-17T16:10:32.626Z,14.09
2023-01-17T16:12:05.995Z,14.08
2023-01-17T16:13:42.309Z,14.10
2023-01-17T16:15:18.353Z,14.12
2023-01-17T16:16:53.401Z,14.11
2023-01-17T16:18:26.862Z,14.13
2023-01-17T16:20:07.130Z,14.10
2023-01-17T16:21:45.626Z,14.13
2023-01-17T16:23:19.397Z,14.15
2023-01-17T16:24:52.807Z,14.16
2023-01-17T16:26:26.346Z,14.14
2023-01-17T16:28:01.479Z,14.14
2023-01-17T16:29:35.094Z,14.08
2023-01-17T16:31:08.759Z,14.03
2023-01-17T16:32:42.768Z,13.99
2023-01-17T16:34:16.195Z,13.93
2023-01-17T16:35:51.339Z,13.88
2023-01-17T16:37:24.531Z,13.83
2023-01-17T16:38:57.733Z,13.76
2023-01-17T16:40:33.904Z,13.65
2023-01-17T16:42:07.311Z,13.60
2023-01-17T16:43:40.633Z,13.48
2023-01-17T16:45:14.997Z,13.39
2023-01-17T16:46:48.364Z,13.31
2023-01-17T16:48:23.879Z,13.20
2023-01-17T16:49:57.167Z,13.13
2023-01-17T16:51:32.460Z,13.08
2023-01-17T16:53:05.934Z,13.00
2023-01-17T16:54:39.706Z,12.95
2023-01-17T16:56:15.414Z,12.88
2023-01-17T16:57:49.668Z,12.85
2023-01-17T16:59:23.262Z,12.82
2023-01-17T17:00:57.786Z,12.78
2023-01-17T17:02:31.346Z,12.73
2023-01-17T17:04:04.541Z,12.68
2023-01-17T17:05:38.356Z,12.68
2023-01-17T17:07:13.051Z,12.71
2023-01-17T17:08:46.340Z,12.71
2023-01-17T17:10:25.559Z,12.75
2023-01-17T17:11:58.926Z,12.77
2023-01-17T17:13:36.303Z,12.79
2023-01-17T17:15:10.865Z,12.77
2023-01-17T17:16:44.562Z,12.72
2023-01-17T17:18:19.312Z,12.69
2023-01-17T17:19:52.857Z,12.68
2023-01-17T17:21:27.113Z,12.71
2023-01-17T17:23:01.664Z,12.61
2023-01-17T17:24:35.165Z,12.55
2023-01-17T17:26:08.520Z,12.52
2023-01-17T17:27:41.775Z,12.52
2023-01-17T17:29:15.488Z,12.46
2023-01-17T17:30:48.770Z,12.44
2023-01-17T17:32:23.069Z,12.39
2023-01-17T17:33:59.640Z,12.28
2023-01-17T17:35:35.633Z,12.22
2023-01-17T17:37:10.523Z,12.20
2023-01-17T17:38:55.095Z,12.18
2023-01-17T17:40:28.766Z,12.17
2023-01-17T17:42:02.227Z,12.16
2023-01-17T17:43:41.222Z,12.08
2023-01-17T17:45:14.766Z,12.02
2023-01-17T17:46:49.689Z,12.02
2023-01-17T17:48:23.464Z,11.98
2023-01-17T17:49:57.345Z,11.95
2023-01-17T17:51:32.926Z,11.94
2023-01-17T17:53:06.024Z,11.92
2023-01-17T17:54:41.020Z,11.94
2023-01-17T17:56:14.525Z,11.95
2023-01-17T17:57:48.144Z,11.97
2023-01-17T17:59:22.665Z,12.07
2023-01-17T18:00:56.097Z,12.26
2023-01-17T18:02:29.493Z,12.30
2023-01-17T18:04:04.346Z,12.46
2023-01-17T18:05:37.701Z,12.89
2023-01-17T18:07:11.235Z,13.33
2023-01-17T18:08:44.937Z,13.71
2023-01-17T18:10:19.915Z,14.22
2023-01-17T18:11:53.339Z,14.58
2023-01-17T18:13:26.716Z,14.77
2023-01-17T18:15:00.343Z,14.88
2023-01-17T18:16:36.800Z,14.98
2023-01-17T18:18:10.228Z,15.00
2023-01-17T18:19:46.386Z,15.06
2023-01-17T18:21:23.944Z,15.15
2023-01-17T18:22:57.286Z,15.24
2023-01-17T18:24:30.876Z,15.27
2023-01-17T18:26:06.112Z,15.30
2023-01-17T18:27:40.772Z,15.31
2023-01-17T18:29:16.377Z,15.32
2023-01-17T18:30:50.100Z,15.32
2023-01-17T18:32:23.850Z,15.31
2023-01-17T18:33:58.864Z,15.29
2023-01-17T18:35:32.389Z,15.28
2023-01-17T18:37:06.125Z,15.25
2023-01-17T18:38:40.119Z,15.25
2023-01-17T18:40:14.004Z,15.26
2023-01-17T18:41:49.604Z,15.26
2023-01-17T18:43:22.951Z,15.20
2023-01-17T18:44:56.431Z,15.18
2023-01-17T18:46:32.411Z,15.20
2023-01-17T18:48:06.676Z,15.20
2023-01-17T18:49:40.174Z,15.22
2023-01-17T18:51:15.773Z,15.22
2023-01-17T18:52:49.381Z,15.24
2023-01-17T18:54:22.955Z,15.24
2023-01-17T18:55:57.649Z,15.28
2023-01-17T18:57:32.664Z,15.30
2023-01-17T18:59:08.007Z,15.28
2023-01-17T19:00:41.560Z,15.28
2023-01-17T19:02:14.824Z,15.26
2023-01-17T19:03:49.816Z,15.28
2023-01-17T19:05:24.937Z,15.30
2023-01-17T19:06:58.383Z,15.28
2023-01-17T19:08:33.696Z,15.26
2023-01-17T19:10:07.974Z,15.26
2023-01-17T19:11:43.455Z,15.27
2023-01-17T19:13:18.347Z,15.31
2023-01-17T19:14:51.911Z,15.34
2023-01-17T19:16:28.428Z,15.37
2023-01-17T19:18:02.950Z,15.37
2023-01-17T19:19:36.590Z,15.46
2023-01-17T19:21:13.225Z,15.50
2023-01-17T19:22:46.882Z,15.57
2023-01-17T19:24:20.649Z,15.60
2023-01-17T19:25:57.054Z,15.60
2023-01-17T19:27:30.508Z,15.58
2023-01-17T19:29:07.168Z,15.64
2023-01-17T19:30:41.437Z,15.67
2023-01-17T19:32:15.035Z,15.66
2023-01-17T19:33:50.279Z,15.68
2023-01-17T19:35:27.041Z,15.61
2023-01-17T19:37:00.533Z,15.62
2023-01-17T19:38:36.297Z,15.60
2023-01-17T19:40:11.484Z,15.57
2023-01-17T19:41:46.392Z,15.65
2023-01-17T19:43:21.126Z,15.69
2023-01-17T19:44:56.338Z,15.65
2023-01-17T19:46:30.319Z,15.67
2023-01-17T19:48:03.651Z,15.65
2023-01-17T19:49:37.350Z,15.61
2023-01-17T19:51:12.968Z,15.54
2023-01-17T19:52:46.303Z,15.51
2023-01-17T19:54:19.561Z,15.49
2023-01-17T19:55:53.119Z,15.53
2023-01-17T19:57:28.097Z,15.54
2023-01-17T19:59:02.376Z,15.54
2023-01-17T20:00:46.172Z,15.58
2023-01-17T20:02:20.478Z,15.55
2023-01-17T20:03:56.647Z,15.51
2023-01-17T20:05:33.929Z,15.49
2023-01-17T20:07:07.265Z,15.52
2023-01-17T20:08:40.938Z,15.49
2023-01-17T20:10:14.346Z,15.47
2023-01-17T20:11:49.201Z,15.44
2023-01-17T20:13:22.539Z,15.48
2023-01-17T20:14:55.940Z,15.50
2023-01-17T20:16:32.793Z,15.49
2023-01-17T20:18:06.504Z,15.49
2023-01-17T20:19:39.725Z,15.46
2023-01-17T20:21:17.284Z,15.45
2023-01-17T20:22:50.752Z,15.45
2023-01-17T20:24:24.240Z,15.47
2023-01-17T20:25:59.300Z,15.44
2023-01-17T20:27:32.728Z,15.47
2023-01-17T20:29:10.560Z,15.45
2023-01-17T20:30:45.435Z,15.40
2023-01-17T20:32:19.989Z,15.36
2023-01-17T20:33:55.113Z,15.41
2023-01-17T20:35:29.347Z,15.52
2023-01-17T20:37:02.524Z,15.52
2023-01-17T20:38:43.806Z,15.55
2023-01-17T20:40:17.610Z,15.62
2023-01-17T20:41:52.085Z,15.73
2023-01-17T20:43:25.210Z,15.80
2023-01-17T20:44:58.273Z,15.83
2023-01-17T20:46:35.551Z,15.88
2023-01-17T20:48:10.484Z,15.85
2023-01-17T20:49:43.727Z,15.83
2023-01-17T20:51:17.965Z,15.77
2023-01-17T20:52:51.346Z,15.77
2023-01-17T20:54:24.828Z,15.74
2023-01-17T20:55:58.351Z,15.71
2023-01-17T20:57:32.632Z,15.64
2023-01-17T20:59:09.050Z,15.58
2023-01-17T21:00:42.432Z,15.51
2023-01-17T21:02:15.900Z,15.43
2023-01-17T21:03:53.947Z,15.38
2023-01-17T21:05:27.686Z,15.35
2023-01-17T21:07:00.915Z,15.31
2023-01-17T21:08:36.796Z,15.32
2023-01-17T21:10:10.906Z,15.36
2023-01-17T21:11:44.178Z,15.44
2023-01-17T21:13:17.557Z,15.47
2023-01-17T21:14:51.170Z,15.49
2023-01-17T21:16:28.076Z,15.48
2023-01-17T21:18:01.301Z,15.46
2023-01-17T21:19:36.668Z,15.45
2023-01-17T21:21:12.626Z,15.45
2023-01-17T21:22:45.723Z,15.43
2023-01-17T21:24:20.161Z,15.36
2023-01-17T21:25:57.441Z,15.32
2023-01-17T21:27:30.585Z,15.38
2023-01-17T21:29:03.826Z,15.41
2023-01-17T21:30:37.516Z,15.41
2023-01-17T21:32:10.764Z,15.37
2023-01-17T21:33:43.852Z,15.37
2023-01-17T21:35:18.527Z,15.33
2023-01-17T21:36:52.039Z,15.31
2023-01-17T21:38:25.320Z,15.30
2023-01-17T21:40:00.188Z,15.31
2023-01-17T21:41:35.037Z,15.32
2023-01-17T21:43:08.271Z,15.30
2023-01-17T21:44:41.692Z,15.24
2023-01-17T21:46:14.881Z,15.20
2023-01-17T21:47:48.020Z,15.18
2023-01-17T21:49:21.211Z,15.19
2023-01-17T21:50:55.822Z,15.19
2023-01-17T21:52:28.012Z,15.15
2023-01-17T21:54:01.191Z,15.11
2023-01-17T21:55:51.873Z,15.15
2023-01-17T21:57:42.314Z,15.17
2023-01-17T21:59:15.444Z,15.19
2023-01-17T22:00:48.569Z,15.32
2023-01-17T22:02:21.880Z,15.41
2023-01-17T22:03:57.446Z,15.40
2023-01-17T22:05:30.525Z,15.40
2023-01-17T22:07:05.051Z,15.35
2023-01-17T22:08:38.953Z,15.32
2023-01-17T22:10:12.756Z,15.30
2023-01-17T22:11:45.871Z,15.31
2023-01-17T22:13:20.167Z,15.28
2023-01-17T22:14:53.824Z,15.35
2023-01-17T22:16:27.312Z,15.40
2023-01-17T22:18:00.575Z,15.41
2023-01-17T22:19:34.834Z,15.45
2023-01-17T22:21:09.823Z,15.46
2023-01-17T22:22:44.611Z,15.48
2023-01-17T22:24:19.815Z,15.53
2023-01-17T22:25:52.944Z,15.50
2023-01-17T22:27:26.108Z,15.57
2023-01-17T22:29:02.557Z,15.54
2023-01-17T22:30:36.009Z,15.52
2023-01-17T22:32:09.380Z,15.50
2023-01-17T22:33:44.687Z,15.45
2023-01-17T22:35:17.953Z,15.39
2023-01-17T22:36:51.052Z,15.39
2023-01-17T22:38:25.631Z,15.40
2023-01-17T22:40:00.519Z,15.42
2023-01-17T22:41:35.228Z,15.45
2023-01-17T22:43:08.677Z,15.45
2023-01-17T22:44:41.850Z,15.43
2023-01-17T22:46:18.175Z,15.41
2023-01-17T22:47:51.430Z,15.42
2023-01-17T22:49:24.588Z,15.40
2023-01-17T22:50:59.228Z,15.39
2023-01-17T22:52:33.790Z,15.36
2023-01-17T22:54:08.576Z,15.36
2023-01-17T22:55:41.745Z,15.38
2023-01-17T22:57:14.815Z,15.39
2023-01-17T22:58:48.992Z,15.43
2023-01-17T23:00:22.487Z,15.49
2023-01-17T23:01:55.610Z,15.51
2023-01-17T23:03:28.790Z,15.51
2023-01-17T23:05:02.071Z,15.54
2023-01-17T23:06:37.011Z,15.57
2023-01-17T23:08:10.433Z,15.57
2023-01-17T23:09:45.840Z,15.54
2023-01-17T23:11:43.570Z,15.47
2023-01-17T23:13:16.994Z,15.47
2023-01-17T23:15:07.225Z,15.44
2023-01-17T23:16:59.948Z,15.40
2023-01-17T23:18:50.672Z,15.45
2023-01-17T23:20:23.819Z,15.42
2023-01-17T23:22:16.729Z,15.42
2023-01-17T23:23:50.068Z,15.41
2023-01-17T23:25:24.562Z,15.40
2023-01-17T23:27:15.256Z,15.38
2023-01-17T23:28:48.616Z,15.39
2023-01-17T23:30:25.106Z,15.39
2023-01-17T23:31:58.541Z,15.40
2023-01-17T23:33:31.647Z,15.40
2023-01-17T23:35:05.145Z,15.42
2023-01-17T23:36:37.483Z,15.40
2023-01-17T23:38:29.983Z,15.41
2023-01-17T23:40:02.191Z,15.42
2023-01-17T23:41:54.427Z,15.44
2023-01-17T23:43:27.673Z,15.49
2023-01-17T23:44:59.815Z,15.52
2023-01-17T23:46:33.080Z,15.52
2023-01-17T23:48:09.870Z,15.49
2023-01-17T23:49:43.573Z,15.47
2023-01-17T23:51:16.656Z,15.45
2023-01-17T23:52:49.838Z,15.46
2023-01-17T23:54:23.036Z,15.44
2023-01-17T23:55:59.581Z,15.43
2023-01-17T23:57:34.082Z,15.40
2023-01-17T23:59:07.208Z,15.43
